Decoded Metar for UUEE (MOSCOW/SHEREMETYEVO in RUSSIA) (IATA:SVO) | Meteo·Mobile Aviation Weather
aviador You're here:

UUEE Decoded Metar

MOSCOW/SHEREMETYEVO in RUSSIA
Report Time2019-07-22 02:00:00
UTC Time2019-07-22 02:13:51
Flight Rules vfr VFR
Wind310° at 4 kt
W.Decomp.*RWY 25: 2.6 kt HW 3.1 kt RCW
Visibility9999 m
Phenomena:N/A
Clouds:N/A
Expected CloudBase > 400 ft AGL from Temp-Dew spread
CeilingNone
Temp14°C (ISA 0)
Dew Point13°C (94% RH)
AAT13.5°C
QNH1017 hPa
Density Alt719 ft
Elevation623 ft
Report Wrong Elevation
Raw Report
UUEE 220200Z 31002MPS 270V350 CAVOK 14/13 Q1017 R24L/CLRD62
R24C/CLRD62 NOSIG=

Extra information for UUEE:More info

Metar Taf Metar & Taf Last 4 Metars F.Rules Stats Wind Profile Meteogram Temp Stats Airport Information Weather charts Add Link Nearby VenuesMetar ALERT Operation Metar Decoded Social comments